Time;durP1;ratioP1;P1;durP2;ratioP2;P2;SDS_P1;SDS_P2;PMS_P1;PMS_P2;Temp;Humidity;BMP_temperature;BMP_pressure;BME280_temperature;BME280_humidity;BME280_pressure;Samples;Min_cycle;Max_cycle;Signal;HPM_P1;HPM_P2
2020/02/17 00:02:04;;;;;;;6.1;3.3;;;;;;;8.03;60.06055;938.4684;;;;
2020/02/17 00:04:36;;;;;;;5.9;3.4;;;;;;;8.28;59.12891;938.428;;;;
2020/02/17 00:07:16;;;;;;;5.3;3.2;;;;;;;8.19;60.11621;938.5578;;;;
2020/02/17 00:09:43;;;;;;;4.8;2.8;;;;;;;7.92;61.0332;938.5969;;;;
2020/02/17 00:12:23;;;;;;;7.5;3.3;;;;;;;7.72;61.81055;938.7034;;;;
2020/02/17 00:17:42;;;;;;;6.1;3.2;;;;;;;7.59;62.1875;938.6298;;;;
2020/02/17 00:20:10;;;;;;;6.5;3.5;;;;;;;7.78;62.1582;938.6;;;;
2020/02/17 00:22:32;;;;;;;5.7;3.2;;;;;;;7.64;62.17188;938.5931;;;;
2020/02/17 00:25:02;;;;;;;4.9;2.7;;;;;;;7.73;61.08496;938.5491;;;;
2020/02/17 00:27:34;;;;;;;8.9;3;;;;;;;7.68;61.14551;938.6242;;;;
2020/02/17 00:30:00;;;;;;;4.9;2.7;;;;;;;7.57;61.95898;938.5733;;;;
2020/02/17 00:32:33;;;;;;;4.3;2.2;;;;;;;7.61;60.2627;938.5838;;;;
2020/02/17 00:35:14;;;;;;;2.6;1.3;;;;;;;7.99;55.60547;938.526;;;;
2020/02/17 00:37:47;;;;;;;3.7;1.9;;;;;;;8.14;56.93066;938.4608;;;;
2020/02/17 00:40:28;;;;;;;5;2.2;;;;;;;8.18;57.66211;938.5154;;;;
2020/02/17 00:43:10;;;;;;;3.8;1.9;;;;;;;8.36;57.77832;938.5028;;;;
2020/02/17 00:45:35;;;;;;;2.7;1.6;;;;;;;8.32;58.05664;938.5311;;;;
2020/02/17 00:48:13;;;;;;;3.7;2;;;;;;;8.06;58.54297;938.4817;;;;
2020/02/17 00:50:52;;;;;;;5.4;1.9;;;;;;;8;58.70508;938.5467;;;;
2020/02/17 00:53:27;;;;;;;2.7;1.6;;;;;;;8.05;58.67871;938.5647;;;;
2020/02/17 00:55:58;;;;;;;2.7;1.8;;;;;;;8;59.0127;938.5722;;;;
2020/02/17 00:58:30;;;;;;;3.4;1.7;;;;;;;7.97;59.71094;938.6088;;;;
2020/02/17 01:00:53;;;;;;;6.4;3.4;;;;;;;8.06;58.84961;938.6942;;;;
2020/02/17 01:03:27;;;;;;;6.6;3.3;;;;;;;7.7;59.70898;938.5358;;;;
2020/02/17 01:05:53;;;;;;;6.4;2.7;;;;;;;7.81;60.0293;938.5759;;;;
2020/02/17 01:08:32;;;;;;;7.2;3.5;;;;;;;7.77;60.68262;938.5428;;;;
2020/02/17 01:11:10;;;;;;;6.3;3;;;;;;;7.72;60.73145;938.6248;;;;
2020/02/17 01:13:44;;;;;;;5;2.5;;;;;;;7.61;61.12402;938.5878;;;;
2020/02/17 01:16:19;;;;;;;3.2;2.1;;;;;;;7.43;61.34766;938.5908;;;;
2020/02/17 01:18:54;;;;;;;3.5;2.2;;;;;;;7.61;61.55469;938.7344;;;;
2020/02/17 01:21:36;;;;;;;3.8;2.3;;;;;;;7.21;63.05078;938.7156;;;;
2020/02/17 01:25:49;;;;;;;3.8;2.2;;;;;;;7;63.83496;938.6967;;;;
2020/02/17 01:26:31;;;;;;;4.4;2.2;;;;;;;6.94;63.96191;938.5861;;;;
2020/02/17 01:29:06;;;;;;;3.7;2.1;;;;;;;6.92;64.41016;938.5689;;;;
2020/02/17 01:32:09;;;;;;;5.7;2.4;;;;;;;7.08;63.52832;938.6014;;;;
2020/02/17 01:34:41;;;;;;;5.4;1.9;;;;;;;7.09;63.13379;938.551;;;;
2020/02/17 01:37:14;;;;;;;5.6;2.2;;;;;;;7.35;62.86621;938.5595;;;;
2020/02/17 01:39:58;;;;;;;6.6;2.5;;;;;;;7.27;62.82129;938.6385;;;;
2020/02/17 01:42:20;;;;;;;3.8;2.1;;;;;;;7.21;63.37793;938.678;;;;
2020/02/17 01:47:35;;;;;;;4.4;2.3;;;;;;;6.81;64.74512;938.7307;;;;
2020/02/17 01:50:05;;;;;;;3.9;2.3;;;;;;;6.61;65.83496;938.6883;;;;
2020/02/17 01:52:39;;;;;;;4.1;2.1;;;;;;;6.73;65.37891;938.7137;;;;
2020/02/17 01:55:08;;;;;;;4.3;2.4;;;;;;;6.65;64.99512;938.7491;;;;
2020/02/17 01:57:44;;;;;;;3.6;2.3;;;;;;;6.67;65.1543;938.626;;;;
2020/02/17 02:00:15;;;;;;;4.1;2.4;;;;;;;6.68;65.42871;938.6809;;;;
2020/02/17 02:02:59;;;;;;;6;3.1;;;;;;;6.61;65.9502;938.6387;;;;
2020/02/17 02:05:25;;;;;;;7;3.3;;;;;;;6.66;66.01367;938.6724;;;;
2020/02/17 02:08:12;;;;;;;9.4;4.1;;;;;;;6.48;66.93555;938.6322;;;;
2020/02/17 02:13:26;;;;;;;11.4;4.7;;;;;;;6.36;66.63281;938.635;;;;
2020/02/17 02:16:05;;;;;;;8.6;4;;;;;;;6.4;66.13086;938.5349;;;;
2020/02/17 02:18:42;;;;;;;10.1;3.7;;;;;;;6.59;65.20996;938.6308;;;;
2020/02/17 02:21:21;;;;;;;7.5;3.6;;;;;;;6.52;65.01953;938.5541;;;;
2020/02/17 02:23:49;;;;;;;8.3;3.5;;;;;;;6.74;64.62207;938.4916;;;;
2020/02/17 02:26:20;;;;;;;10.6;4.3;;;;;;;6.62;65.11426;938.5861;;;;
2020/02/17 02:28:56;;;;;;;7.9;3.7;;;;;;;6.5;65.72949;938.5725;;;;
2020/02/17 02:33:59;;;;;;;11.7;4.8;;;;;;;6.43;66.50977;938.5748;;;;
2020/02/17 02:36:31;;;;;;;10.9;4.7;;;;;;;6.36;67.04199;938.552;;;;
2020/02/17 02:39:14;;;;;;;10.3;4.3;;;;;;;6.45;65.94727;938.5089;;;;
2020/02/17 02:41:49;;;;;;;8.4;3.7;;;;;;;6.36;65.93164;938.5725;;;;
2020/02/17 02:44:33;;;;;;;8.2;3.4;;;;;;;6.42;65.17383;938.6156;;;;
2020/02/17 02:47:08;;;;;;;6.7;3.2;;;;;;;6.54;64.42285;938.6187;;;;
2020/02/17 02:49:36;;;;;;;16;4;;;;;;;6.63;64.95508;938.7081;;;;
2020/02/17 02:52:17;;;;;;;9;3.8;;;;;;;6.8;64.60938;938.7431;;;;
2020/02/17 02:54:47;;;;;;;13.9;4.2;;;;;;;6.64;65.30762;938.7731;;;;
2020/02/17 02:57:05;;;;;;;8.8;4.1;;;;;;;6.59;65.53809;938.8248;;;;
2020/02/17 02:59:38;;;;;;;9.8;4.2;;;;;;;6.77;64.93164;938.8873;;;;
2020/02/17 03:02:04;;;;;;;9.6;4;;;;;;;6.91;64.86328;938.9518;;;;
2020/02/17 03:04:37;;;;;;;10.5;4.3;;;;;;;7.04;64.0332;938.9846;;;;
2020/02/17 03:07:08;;;;;;;10.6;4.3;;;;;;;7.06;63.86719;938.9905;;;;
2020/02/17 03:09:34;;;;;;;7.8;3.7;;;;;;;7.04;64.10059;939.0715;;;;
2020/02/17 03:12:24;;;;;;;7.9;3.6;;;;;;;6.91;64.20703;939.0673;;;;
2020/02/17 03:14:46;;;;;;;9.4;3.7;;;;;;;6.68;65.02148;939.2023;;;;
2020/02/17 03:17:23;;;;;;;7.1;3.9;;;;;;;6.73;64.90234;939.1867;;;;
2020/02/17 03:19:54;;;;;;;7.6;3.2;;;;;;;6.88;63.73828;939.1981;;;;
2020/02/17 03:22:25;;;;;;;6.9;2.8;;;;;;;6.8;63.54395;939.225;;;;
2020/02/17 03:24:51;;;;;;;4;2;;;;;;;6.91;62.83691;939.1806;;;;
2020/02/17 03:27:22;;;;;;;7.8;2.7;;;;;;;6.95;63.18164;939.226;;;;
2020/02/17 03:30:01;;;;;;;5.2;2.2;;;;;;;6.96;62.1875;939.0995;;;;
2020/02/17 03:32:21;;;;;;;6.6;3.2;;;;;;;6.81;63.45605;939.1464;;;;
2020/02/17 03:34:59;;;;;;;8.1;3.8;;;;;;;6.81;64.36133;939.2882;;;;
2020/02/17 03:37:35;;;;;;;9.9;4.1;;;;;;;6.27;66.12207;939.2264;;;;
2020/02/17 03:40:19;;;;;;;9.1;3.9;;;;;;;6.23;66.37598;939.375;;;;
2020/02/17 03:42:38;;;;;;;13.5;8.8;;;;;;;6.21;66.22754;939.3975;;;;
2020/02/17 03:45:10;;;;;;;8.4;4.6;;;;;;;6.24;65.81348;939.3689;;;;
2020/02/17 03:47:37;;;;;;;13.1;5.6;;;;;;;5.99;67.26563;939.4381;;;;
2020/02/17 03:50:26;;;;;;;11.7;4.8;;;;;;;5.89;67.9834;939.4878;;;;
2020/02/17 03:53:19;;;;;;;11;4.6;;;;;;;6.14;67.29004;939.5438;;;;
2020/02/17 03:55:37;;;;;;;12.3;4.4;;;;;;;5.97;67.88477;939.4998;;;;
2020/02/17 03:59:42;;;;;;;8.4;3.7;;;;;;;6.01;67.95996;939.5394;;;;
2020/02/17 04:02:52;;;;;;;10.1;3.7;;;;;;;6.04;67.73633;939.6214;;;;
2020/02/17 04:05:25;;;;;;;10.6;4.2;;;;;;;5.89;68.11914;939.679;;;;
2020/02/17 04:08:12;;;;;;;6.4;3.1;;;;;;;5.81;68.19727;939.6767;;;;
2020/02/17 04:10:37;;;;;;;6.8;3.2;;;;;;;5.69;68.67578;939.6738;;;;
2020/02/17 04:13:04;;;;;;;7.6;3.1;;;;;;;5.82;68.3457;939.6462;;;;
2020/02/17 04:15:32;;;;;;;9.5;5;;;;;;;5.91;69.03613;939.7447;;;;
2020/02/17 04:18:25;;;;;;;11.3;6.3;;;;;;;5.95;68.64844;939.6914;;;;
2020/02/17 04:20:29;;;;;;;20.7;9.9;;;;;;;5.9;68.17773;939.7698;;;;
2020/02/17 04:22:57;;;;;;;12.4;6;;;;;;;5.61;69.0918;939.8276;;;;
2020/02/17 04:25:26;;;;;;;7.3;4.2;;;;;;;5.73;68.85059;939.7609;;;;
2020/02/17 04:27:59;;;;;;;9;3.6;;;;;;;5.56;69.07324;939.7628;;;;
2020/02/17 04:30:32;;;;;;;5.3;2.4;;;;;;;5.84;68.61035;939.8736;;;;
2020/02/17 04:33:04;;;;;;;5.4;2.5;;;;;;;6.02;67.93652;939.7925;;;;
2020/02/17 04:38:25;;;;;;;5.4;2.9;;;;;;;5.79;68.68066;939.8576;;;;
2020/02/17 04:41:05;;;;;;;6.6;2.7;;;;;;;5.72;68.52148;939.7552;;;;
2020/02/17 04:43:43;;;;;;;8.6;2.7;;;;;;;5.45;69.48242;939.7751;;;;
2020/02/17 04:46:26;;;;;;;6.8;2.7;;;;;;;5.35;69.86133;939.7063;;;;
2020/02/17 04:48:52;;;;;;;6;3;;;;;;;5.29;70.30176;939.7516;;;;
2020/02/17 04:51:36;;;;;;;3.6;2.3;;;;;;;5.45;69.5166;939.7175;;;;
2020/02/17 04:54:07;;;;;;;4.1;2.3;;;;;;;5.57;69.20996;939.7094;;;;
2020/02/17 04:56:38;;;;;;;6.8;2.3;;;;;;;5.36;69.8291;939.6972;;;;
2020/02/17 04:59:15;;;;;;;6.2;2.5;;;;;;;5.31;70.22656;939.6433;;;;
2020/02/17 05:02:04;;;;;;;6.2;2.8;;;;;;;5.14;70.76172;939.633;;;;
2020/02/17 05:04:26;;;;;;;6.3;3;;;;;;;5.01;71.46191;939.677;;;;
2020/02/17 05:06:49;;;;;;;6.5;3.6;;;;;;;5.22;70.82227;939.5664;;;;
2020/02/17 05:09:16;;;;;;;9.4;4.9;;;;;;;5.09;71.18262;939.5146;;;;
2020/02/17 05:11:39;;;;;;;10.8;5.7;;;;;;;5.2;70.90918;939.53;;;;
2020/02/17 05:14:11;;;;;;;9.4;5.7;;;;;;;5.14;71.29199;939.4869;;;;
2020/02/17 05:17:22;;;;;;;10.8;5.5;;;;;;;4.91;71.70508;939.5061;;;;
2020/02/17 05:20:06;;;;;;;8.5;5.8;;;;;;;4.98;71.49121;939.4635;;;;
2020/02/17 05:22:33;;;;;;;10.4;5.6;;;;;;;5.16;70.74414;939.4821;;;;
2020/02/17 05:25:24;;;;;;;9.2;5.1;;;;;;;5.31;70.23926;939.5408;;;;
2020/02/17 05:28:01;;;;;;;11.2;5.5;;;;;;;5.21;70.58203;939.4444;;;;
2020/02/17 05:30:41;;;;;;;14.7;7.1;;;;;;;4.88;71.93652;939.5313;;;;
2020/02/17 05:33:14;;;;;;;19.2;11.7;;;;;;;4.76;72.57031;939.5042;;;;
2020/02/17 05:35:33;;;;;;;14.9;8.8;;;;;;;4.96;71.30664;939.4274;;;;
2020/02/17 05:38:09;;;;;;;14.6;9.8;;;;;;;5.24;70.40723;939.4511;;;;
2020/02/17 05:40:39;;;;;;;14.6;8;;;;;;;5.05;71.01855;939.3611;;;;
2020/02/17 05:43:17;;;;;;;11.3;6.3;;;;;;;4.97;71.625;939.3748;;;;
2020/02/17 05:46:00;;;;;;;11.6;6.4;;;;;;;5.18;71.16406;939.5254;;;;
2020/02/17 05:48:33;;;;;;;13.1;7.2;;;;;;;5.4;69.97168;939.5231;;;;
2020/02/17 05:51:15;;;;;;;15.3;7.5;;;;;;;5.42;69.55566;939.5452;;;;
2020/02/17 05:53:51;;;;;;;18.2;8.2;;;;;;;5.08;70.56152;939.5901;;;;
2020/02/17 05:56:19;;;;;;;14.1;7.1;;;;;;;4.91;71.16406;939.668;;;;
2020/02/17 05:58:46;;;;;;;11.1;6.2;;;;;;;4.86;71.19043;939.6033;;;;
2020/02/17 06:01:19;;;;;;;9.8;5.3;;;;;;;4.81;71.13477;939.5344;;;;
2020/02/17 06:04:01;;;;;;;13.7;6.2;;;;;;;4.78;71.28906;939.6872;;;;
2020/02/17 06:06:33;;;;;;;10.8;6;;;;;;;4.62;72.12891;939.7267;;;;
2020/02/17 06:09:16;;;;;;;18.3;6.6;;;;;;;4.72;72.00098;939.6671;;;;
2020/02/17 06:11:52;;;;;;;12.2;5.8;;;;;;;4.81;71.6416;939.7205;;;;
2020/02/17 06:14:45;;;;;;;10;5.1;;;;;;;4.88;71.11426;939.7955;;;;
2020/02/17 06:17:19;;;;;;;9.8;4.4;;;;;;;4.87;70.68457;939.8251;;;;
2020/02/17 06:19:42;;;;;;;12.9;4.9;;;;;;;4.84;71.10645;939.8621;;;;
2020/02/17 06:22:25;;;;;;;18.8;6.7;;;;;;;4.82;71.36328;939.9307;;;;
2020/02/17 06:24:52;;;;;;;18.4;7.2;;;;;;;4.86;71.73145;939.9306;;;;
2020/02/17 06:27:26;;;;;;;17.9;8;;;;;;;5.2;70.54688;939.8976;;;;
2020/02/17 06:29:58;;;;;;;17.8;9.3;;;;;;;5.18;70.60156;939.8381;;;;
2020/02/17 06:32:37;;;;;;;21.2;11.1;;;;;;;5.02;71.65723;939.7665;;;;
2020/02/17 06:36:14;;;;;;;26.3;14.4;;;;;;;5.09;71.20508;939.8209;;;;
2020/02/17 06:44:52;;;;;;;30.7;17.9;;;;;;;5.26;70.69238;939.7469;;;;
2020/02/17 06:47:57;;;;;;;38.4;17.8;;;;;;;5.08;71.2041;939.9011;;;;
2020/02/17 06:50:30;;;;;;;28.5;13.7;;;;;;;4.93;70.8291;939.7388;;;;
2020/02/17 06:53:08;;;;;;;37.7;17;;;;;;;5.1;70.97168;939.6262;;;;
2020/02/17 06:55:53;;;;;;;42.7;19.6;;;;;;;4.93;71.97852;939.6964;;;;
2020/02/17 06:58:31;;;;;;;28.7;14.1;;;;;;;4.72;72.26953;939.7064;;;;
2020/02/17 07:01:21;;;;;;;27.6;15.1;;;;;;;4.72;72.60742;939.6858;;;;
2020/02/17 07:03:47;;;;;;;24;12.8;;;;;;;4.81;72.36426;939.6409;;;;
2020/02/17 07:06:36;;;;;;;23.2;10.1;;;;;;;5.07;71.32422;939.5762;;;;
2020/02/17 07:09:01;;;;;;;25.3;13.4;;;;;;;5.05;71.35742;939.6239;;;;
2020/02/17 07:11:37;;;;;;;25;13.5;;;;;;;5.07;71.24707;939.6166;;;;
2020/02/17 07:14:16;;;;;;;23;12.7;;;;;;;5.23;70.39355;939.595;;;;
2020/02/17 07:19:47;;;;;;;16.8;8.4;;;;;;;5.26;70.0498;939.5131;;;;
2020/02/17 07:22:19;;;;;;;13.6;7.8;;;;;;;5.34;69.72461;939.5948;;;;
2020/02/17 07:24:57;;;;;;;17.9;9.5;;;;;;;5.83;68.44727;939.6266;;;;
2020/02/17 07:27:25;;;;;;;19.2;11.4;;;;;;;5.83;68.49414;939.7073;;;;
2020/02/17 07:29:50;;;;;;;18.9;9.9;;;;;;;5.85;68.79102;939.6827;;;;
2020/02/17 07:32:22;;;;;;;16.9;8.7;;;;;;;6.16;67.63184;939.6852;;;;
2020/02/17 07:34:51;;;;;;;20.6;9.4;;;;;;;6.18;67.375;939.5867;;;;
2020/02/17 07:37:17;;;;;;;19;8.8;;;;;;;6.29;67.0293;939.6967;;;;
2020/02/17 07:40:02;;;;;;;19.6;8.1;;;;;;;6.57;65.66016;939.688;;;;
2020/02/17 07:42:34;;;;;;;16.5;7;;;;;;;7.01;64.01953;939.7098;;;;
2020/02/17 07:45:28;;;;;;;26.9;8.7;;;;;;;7.28;62.81055;939.7062;;;;
2020/02/17 07:47:50;;;;;;;35.1;8.8;;;;;;;7.91;60.59961;939.6089;;;;
2020/02/17 07:50:35;;;;;;;21.7;6.5;;;;;;;8.44;58.77637;939.6264;;;;
2020/02/17 07:52:57;;;;;;;21.4;10.2;;;;;;;9.36;57.60449;939.6042;;;;
2020/02/17 07:55:40;;;;;;;19.6;9.6;;;;;;;9.79;54.91504;939.5914;;;;
2020/02/17 07:58:12;;;;;;;17.3;8.3;;;;;;;10.18;54.1084;939.5081;;;;
2020/02/17 08:00:35;;;;;;;17.4;6.5;;;;;;;10.11;52.42188;939.403;;;;
2020/02/17 08:03:00;;;;;;;28.3;6.3;;;;;;;10.02;51.44434;939.3876;;;;
2020/02/17 08:05:30;;;;;;;39.8;6.7;;;;;;;10.14;51.24121;939.5641;;;;
2020/02/17 08:07:56;;;;;;;18.2;4.8;;;;;;;10.64;52.38379;939.5179;;;;
2020/02/17 08:10:22;;;;;;;17.4;4.5;;;;;;;11.06;50.06934;939.5133;;;;
2020/02/17 08:12:50;;;;;;;13.6;3;;;;;;;10.84;47.3252;939.4471;;;;
2020/02/17 08:15:22;;;;;;;20.6;3.9;;;;;;;10.97;48.17285;939.4747;;;;
2020/02/17 08:17:49;;;;;;;25.5;4.9;;;;;;;11.1;48.55273;939.4762;;;;
2020/02/17 08:20:20;;;;;;;44;7.2;;;;;;;11.49;48.18555;939.5486;;;;
2020/02/17 08:22:57;;;;;;;34.1;6.1;;;;;;;11.89;47.63379;939.3728;;;;
2020/02/17 08:25:22;;;;;;;18.9;4.5;;;;;;;11.98;46.63672;939.4412;;;;
2020/02/17 08:27:44;;;;;;;17.4;4.3;;;;;;;12;46.23828;939.4875;;;;
2020/02/17 08:29:59;;;;;;;17.3;5.1;;;;;;;12.44;46.0332;939.4731;;;;
2020/02/17 08:35:06;;;;;;;24.2;8.5;;;;;;;12.48;45.6582;939.4158;;;;
2020/02/17 08:40:21;;;;;;;22.4;6.7;;;;;;;12.66;45.56152;939.3167;;;;
2020/02/17 08:42:30;;;;;;;14.8;5.5;;;;;;;12.77;45.57324;939.2612;;;;
2020/02/17 08:44:57;;;;;;;40.1;8;;;;;;;12.88;45.02246;939.2274;;;;
2020/02/17 08:47:31;;;;;;;13.1;4.5;;;;;;;12.95;43.91602;939.2307;;;;
2020/02/17 08:50:06;;;;;;;18.6;4.5;;;;;;;12.94;44.12207;939.2131;;;;
2020/02/17 08:52:47;;;;;;;15.1;3;;;;;;;13.03;41.55762;939.1903;;;;
2020/02/17 08:55:09;;;;;;;18;2.8;;;;;;;13.03;39.8125;939.1824;;;;
2020/02/17 09:01:14;;;;;;;38.5;4.3;;;;;;;13.93;39.00879;939.1275;;;;
2020/02/17 09:03:39;;;;;;;17;2.7;;;;;;;14.84;37.33789;939.1923;;;;
2020/02/17 09:06:11;;;;;;;6;2.7;;;;;;;15.2;35.85645;939.0981;;;;
2020/02/17 09:08:44;;;;;;;8.6;2.8;;;;;;;15.59;35.01074;939.0212;;;;
2020/02/17 09:11:17;;;;;;;12.2;3.6;;;;;;;15.93;34.71387;938.9914;;;;
2020/02/17 09:13:49;;;;;;;8.1;2.4;;;;;;;15.83;34.15137;938.8929;;;;
2020/02/17 09:16:23;;;;;;;10;2.5;;;;;;;15.78;34.7832;938.8817;;;;
2020/02/17 09:18:57;;;;;;;11.4;2.8;;;;;;;15.79;34.19531;938.811;;;;
2020/02/17 09:21:32;;;;;;;4.8;1.7;;;;;;;15.97;34.32422;938.7935;;;;
2020/02/17 09:23:59;;;;;;;4.6;1.4;;;;;;;16.31;33.84277;938.7605;;;;
2020/02/17 09:26:25;;;;;;;8.4;2.1;;;;;;;16.06;33.60352;938.7615;;;;
2020/02/17 09:29:02;;;;;;;10.3;1.8;;;;;;;15.59;34.44531;938.7236;;;;
2020/02/17 09:31:30;;;;;;;16.7;2.2;;;;;;;15.72;35.11426;938.6985;;;;
2020/02/17 09:33:54;;;;;;;6.3;1.5;;;;;;;15.37;35.08594;938.6349;;;;
2020/02/17 09:36:21;;;;;;;6.6;1.9;;;;;;;15.38;35.47852;938.6606;;;;
2020/02/17 09:38:52;;;;;;;4.5;1.5;;;;;;;14.98;35.68945;938.7039;;;;
2020/02/17 09:41:18;;;;;;;18.2;2.9;;;;;;;14.73;36.04883;938.67;;;;
2020/02/17 09:43:43;;;;;;;7.9;1.7;;;;;;;14.61;36.8916;938.7946;;;;
2020/02/17 09:46:21;;;;;;;5.4;1.6;;;;;;;14.47;35.55469;938.8097;;;;
2020/02/17 09:49:02;;;;;;;10.9;1.9;;;;;;;14.15;36.91113;938.7837;;;;
2020/02/17 09:51:32;;;;;;;8.5;2.4;;;;;;;14.59;36.36035;938.7754;;;;
2020/02/17 09:54:00;;;;;;;5.9;1.7;;;;;;;14.59;35.92188;938.7322;;;;
2020/02/17 09:56:31;;;;;;;6.4;2.6;;;;;;;15.05;35.87988;938.6613;;;;
2020/02/17 09:59:03;;;;;;;7.5;2.3;;;;;;;15.73;34.59473;938.7097;;;;
2020/02/17 10:01:36;;;;;;;8.1;2.5;;;;;;;15.87;35.42676;938.723;;;;
2020/02/17 10:04:09;;;;;;;6.5;2.1;;;;;;;15.43;34.97461;938.7969;;;;
2020/02/17 10:06:40;;;;;;;52.9;4.4;;;;;;;15.06;35.39551;938.7919;;;;
2020/02/17 10:09:13;;;;;;;15.4;2.8;;;;;;;15.53;34.66016;938.6908;;;;
2020/02/17 10:11:45;;;;;;;12.7;2.3;;;;;;;15.85;34.02637;938.6742;;;;
2020/02/17 10:14:21;;;;;;;5.4;1.5;;;;;;;15.61;32.70215;938.6438;;;;
2020/02/17 10:17:13;;;;;;;7.5;1.7;;;;;;;15.36;34.36914;938.6719;;;;
2020/02/17 10:27:30;;;;;;;8.8;1.6;;;;;;;16.33;32.74414;938.4461;;;;
2020/02/17 10:34:47;;;;;;;4.5;1.4;;;;;;;16.62;31.68945;938.2845;;;;
2020/02/17 10:37:15;;;;;;;7.9;1.8;;;;;;;16.76;33.4834;938.2628;;;;
2020/02/17 10:39:56;;;;;;;3.1;1.5;;;;;;;16.56;31.82422;938.3131;;;;
2020/02/17 10:42:40;;;;;;;6.4;1.4;;;;;;;16.99;32.08691;938.2758;;;;
2020/02/17 10:45:12;;;;;;;3.4;1.4;;;;;;;17.42;31.57324;938.3985;;;;
2020/02/17 10:47:37;;;;;;;5.8;1.5;;;;;;;17.76;31.58691;938.3795;;;;
2020/02/17 10:50:09;;;;;;;8.5;1.9;;;;;;;18.25;30.61035;938.3823;;;;
2020/02/17 10:52:41;;;;;;;14.9;2.4;;;;;;;18.46;28.47363;938.3906;;;;
2020/02/17 10:55:22;;;;;;;8.6;1.7;;;;;;;18.86;28.52246;938.4644;;;;
2020/02/17 10:57:49;;;;;;;4.7;1.4;;;;;;;18.76;27.7373;938.3583;;;;
2020/02/17 11:00:21;;;;;;;3.8;1.2;;;;;;;19.44;28.43164;938.144;;;;
2020/02/17 11:02:54;;;;;;;10.3;1.7;;;;;;;19.74;27.60059;938.2629;;;;
2020/02/17 11:05:34;;;;;;;6.2;1.4;;;;;;;20.13;27.69434;938.1887;;;;
2020/02/17 11:08:02;;;;;;;12.3;1.7;;;;;;;19.25;27.3252;938.1928;;;;
2020/02/17 11:10:39;;;;;;;9.4;1.5;;;;;;;18.49;28.38281;938.2084;;;;
2020/02/17 11:13:19;;;;;;;1.6;1.1;;;;;;;19.54;27.90332;938.1144;;;;
2020/02/17 11:15:55;;;;;;;2.3;1.3;;;;;;;20.31;26.78418;938.0496;;;;
2020/02/17 11:19:08;;;;;;;2.9;1.1;;;;;;;20.26;27.37598;938.0212;;;;
2020/02/17 11:21:26;;;;;;;3.6;1.2;;;;;;;20.46;26.4541;938.0045;;;;
2020/02/17 11:24:30;;;;;;;6.8;1.7;;;;;;;19.9;27.09668;938.0215;;;;
2020/02/17 11:27:04;;;;;;;4.6;1.2;;;;;;;19.34;27.33105;937.9743;;;;
2020/02/17 11:29:54;;;;;;;10.9;1.9;;;;;;;19.54;27.97266;937.9802;;;;
2020/02/17 11:32:28;;;;;;;3;1.3;;;;;;;20.3;27.44824;937.9528;;;;
2020/02/17 11:34:56;;;;;;;5.3;1.3;;;;;;;21.14;27.27832;937.8131;;;;
2020/02/17 11:37:34;;;;;;;4.8;1.5;;;;;;;21.21;27.5752;937.8531;;;;
2020/02/17 11:39:58;;;;;;;4.3;1.4;;;;;;;20.94;26.7168;937.8062;;;;
2020/02/17 11:42:29;;;;;;;2.4;1.3;;;;;;;20.64;27.67969;937.8347;;;;
2020/02/17 11:44:56;;;;;;;3.8;1.3;;;;;;;20.72;28.52637;937.8516;;;;
2020/02/17 11:47:27;;;;;;;3;1.2;;;;;;;21.19;28.84961;937.9266;;;;
2020/02/17 11:50:03;;;;;;;2.6;1.3;;;;;;;21.9;26.3877;937.9359;;;;
2020/02/17 11:52:34;;;;;;;2.9;1.2;;;;;;;22.59;25.4668;938.0095;;;;
2020/02/17 11:55:15;;;;;;;4.5;1.2;;;;;;;22.61;24.95117;937.9828;;;;
2020/02/17 11:57:52;;;;;;;3.1;1.2;;;;;;;22.3;25.20313;938.0045;;;;
2020/02/17 12:00:22;;;;;;;2.9;1.3;;;;;;;22;26.45215;938.0338;;;;
2020/02/17 12:02:54;;;;;;;4.7;1.3;;;;;;;21.78;27.29395;937.9067;;;;
2020/02/17 12:05:24;;;;;;;3;1.3;;;;;;;21.93;25.88574;937.9219;;;;
2020/02/17 12:07:56;;;;;;;3.3;1.4;;;;;;;22.01;25.77344;937.9874;;;;
2020/02/17 12:10:22;;;;;;;3;1.3;;;;;;;22.07;26.69141;937.872;;;;
2020/02/17 12:13:01;;;;;;;7.1;1.2;;;;;;;21.94;24.67969;937.9185;;;;
2020/02/17 12:15:38;;;;;;;4.9;1.3;;;;;;;22.07;25.0498;937.8365;;;;
2020/02/17 12:18:09;;;;;;;8.9;1.6;;;;;;;22.56;24.97168;937.7776;;;;
2020/02/17 12:21:09;;;;;;;7.2;1.5;;;;;;;22.84;24.03613;937.7759;;;;
2020/02/17 12:26:28;;;;;;;5;1.3;;;;;;;22.46;24.13281;937.7061;;;;
2020/02/17 12:28:58;;;;;;;5.9;1.4;;;;;;;23.1;23.4043;937.5559;;;;
2020/02/17 12:31:18;;;;;;;4.3;1.6;;;;;;;23.65;22.63379;937.5848;;;;
2020/02/17 12:33:49;;;;;;;2.6;1.6;;;;;;;24.35;21.77344;937.5938;;;;
2020/02/17 12:36:11;;;;;;;2.5;1.4;;;;;;;25.07;21.79688;937.5773;;;;
2020/02/17 12:38:36;;;;;;;5.8;1.6;;;;;;;25.54;21.51172;937.5209;;;;
2020/02/17 12:41:07;;;;;;;4.8;1.2;;;;;;;26.07;20.6748;937.6021;;;;
2020/02/17 12:43:42;;;;;;;4.1;1.2;;;;;;;26.86;19.56152;937.5295;;;;
2020/02/17 12:46:08;;;;;;;3.5;1.2;;;;;;;27.49;19.29297;937.4036;;;;
2020/02/17 12:48:34;;;;;;;2.3;1;;;;;;;28.14;18.20313;937.3329;;;;
2020/02/17 12:51:11;;;;;;;1.3;0.9;;;;;;;28.4;17.94043;937.3047;;;;
2020/02/17 12:53:41;;;;;;;4.2;1;;;;;;;27.98;17.7334;937.3232;;;;
2020/02/17 12:56:13;;;;;;;1.7;1;;;;;;;27.59;19.20215;937.2488;;;;
2020/02/17 12:58:44;;;;;;;2.4;1.1;;;;;;;28.18;18.84668;937.2598;;;;
2020/02/17 13:01:16;;;;;;;2;1.1;;;;;;;28.35;17.67676;937.2346;;;;
2020/02/17 13:03:48;;;;;;;2.2;1.2;;;;;;;27.61;18.33594;937.2361;;;;
2020/02/17 13:06:20;;;;;;;2.5;1.2;;;;;;;27.4;19.09863;937.1727;;;;
2020/02/17 13:08:49;;;;;;;1.7;0.9;;;;;;;27.86;18.75;937.1494;;;;
2020/02/17 13:11:17;;;;;;;1.8;1.1;;;;;;;28.27;18.43457;937.13;;;;
2020/02/17 13:14:03;;;;;;;3.1;1.1;;;;;;;28.59;18.30469;937.1138;;;;
2020/02/17 13:16:15;;;;;;;4;1.2;;;;;;;28.37;18.99707;937.0956;;;;
2020/02/17 13:18:40;;;;;;;4.3;1.2;;;;;;;27.87;18.66797;937.1004;;;;
2020/02/17 13:21:24;;;;;;;4.3;1.2;;;;;;;27.91;19.13184;937.094;;;;
2020/02/17 13:23:55;;;;;;;2.8;1.4;;;;;;;28.55;18.375;937.0331;;;;
2020/02/17 13:26:33;;;;;;;5.1;1.2;;;;;;;28.22;18.64648;937.087;;;;
2020/02/17 13:29:13;;;;;;;3.4;1.3;;;;;;;26.83;20.55566;937.0511;;;;
2020/02/17 13:31:54;;;;;;;4.6;1.2;;;;;;;26.83;20.68652;937.0684;;;;
2020/02/17 13:34:32;;;;;;;2.8;1.2;;;;;;;27.15;20.52246;937.1;;;;
2020/02/17 13:37:03;;;;;;;3.7;1.2;;;;;;;27.56;19.92383;937.1655;;;;
2020/02/17 13:39:28;;;;;;;4;1.6;;;;;;;27.99;20.33594;937.1121;;;;
2020/02/17 13:42:28;;;;;;;5.3;1.4;;;;;;;27.86;20.35352;937.1094;;;;
2020/02/17 13:45:00;;;;;;;3.2;1.3;;;;;;;26.83;21.74023;937.1664;;;;
2020/02/17 13:47:30;;;;;;;3.8;1.4;;;;;;;25.81;23.15723;937.1497;;;;
2020/02/17 13:50:05;;;;;;;2.4;1.3;;;;;;;25.2;23.89258;937.2361;;;;
2020/02/17 13:52:37;;;;;;;3.5;1.3;;;;;;;24.7;24.34863;937.2453;;;;
2020/02/17 13:55:21;;;;;;;4.5;1.3;;;;;;;24.46;24.85449;937.2447;;;;
2020/02/17 13:57:48;;;;;;;4.8;1.3;;;;;;;23.7;26.21289;937.2802;;;;
2020/02/17 14:01:15;;;;;;;3.6;1.3;;;;;;;23.11;27.07031;937.3508;;;;
2020/02/17 14:03:09;;;;;;;2.6;1.4;;;;;;;22.36;28.80762;937.3801;;;;
2020/02/17 14:05:39;;;;;;;2.8;1.2;;;;;;;21.88;30.125;937.3918;;;;
2020/02/17 14:08:06;;;;;;;4.3;1.4;;;;;;;21.53;30.72168;937.3402;;;;
2020/02/17 14:10:56;;;;;;;3.3;1.6;;;;;;;21.18;30.98926;937.3349;;;;
2020/02/17 14:13:00;;;;;;;3.9;1.4;;;;;;;21.05;31.40137;937.2701;;;;
2020/02/17 14:15:24;;;;;;;3.8;1.3;;;;;;;21;31.93555;937.2902;;;;
2020/02/17 14:18:02;;;;;;;3;1.4;;;;;;;20.91;32.0459;937.2131;;;;
2020/02/17 14:26:04;;;;;;;4.3;2;;;;;;;19.81;35.9668;937.1259;;;;
2020/02/17 14:33:46;;;;;;;2.4;1.7;;;;;;;18.58;38.78613;937.1758;;;;
2020/02/17 14:48:39;;;;;;;6.4;2.3;;;;;;;17.02;45.50879;937.2704;;;;
2020/02/17 14:51:11;;;;;;;3.2;2.2;;;;;;;16.36;44.99023;937.4081;;;;
2020/02/17 14:53:44;;;;;;;6.6;2.3;;;;;;;16.23;46.49121;937.3481;;;;
2020/02/17 14:56:27;;;;;;;5.5;2.3;;;;;;;15.93;47.1416;937.423;;;;
2020/02/17 14:59:01;;;;;;;4.2;2.5;;;;;;;15.65;48.63672;937.5698;;;;
2020/02/17 15:01:33;;;;;;;4.1;2.4;;;;;;;15.61;48.31934;937.6116;;;;
2020/02/17 15:03:53;;;;;;;3.9;2.4;;;;;;;15.45;48.1748;937.5922;;;;
2020/02/17 15:06:21;;;;;;;3.9;2.4;;;;;;;15.53;48.64648;937.5319;;;;
2020/02/17 15:09:04;;;;;;;4.2;2.5;;;;;;;15.4;50.06348;937.5699;;;;
2020/02/17 15:11:27;;;;;;;4;2.5;;;;;;;15.33;49.28125;937.6766;;;;
2020/02/17 15:13:56;;;;;;;5.5;2.4;;;;;;;15.32;50.23926;937.7441;;;;
2020/02/17 15:16:27;;;;;;;3.7;2.4;;;;;;;15.47;49.16992;937.8239;;;;
2020/02/17 15:18:56;;;;;;;3.8;2.3;;;;;;;15.29;50.2002;937.8069;;;;
2020/02/17 15:21:27;;;;;;;3.5;2.3;;;;;;;15.37;49.62207;937.7106;;;;
2020/02/17 15:24:24;;;;;;;4.6;2.4;;;;;;;15.16;49.52832;937.742;;;;
2020/02/17 15:26:36;;;;;;;5.4;2.7;;;;;;;14.88;50.97266;937.8058;;;;
2020/02/17 15:29:03;;;;;;;3.4;2.1;;;;;;;14.6;51.82715;937.8914;;;;
2020/02/17 15:31:30;;;;;;;4.4;2.7;;;;;;;14.68;52.39063;937.892;;;;
2020/02/17 15:34:19;;;;;;;3.7;2.2;;;;;;;14.67;51.36328;937.8688;;;;
2020/02/17 15:36:47;;;;;;;3.9;2.8;;;;;;;14.54;52.43164;937.9712;;;;
2020/02/17 15:41:59;;;;;;;4.9;3.2;;;;;;;14.33;53.83398;938.0623;;;;
2020/02/17 15:44:30;;;;;;;4.8;2.5;;;;;;;14.13;54.41992;938.0574;;;;
2020/02/17 15:52:29;;;;;;;5;3;;;;;;;14.1;54.07031;938.1777;;;;
2020/02/17 15:59:56;;;;;;;5;3.1;;;;;;;13.87;55.19141;938.2399;;;;
2020/02/17 16:02:44;;;;;;;5.7;3.3;;;;;;;13.69;56.27441;938.4314;;;;
2020/02/17 16:05:02;;;;;;;5.1;3.1;;;;;;;13.74;56.10742;938.4128;;;;
2020/02/17 16:07:36;;;;;;;5.3;3.2;;;;;;;13.66;55.46582;938.3867;;;;
2020/02/17 16:10:14;;;;;;;7.6;3.3;;;;;;;13.85;55.71875;938.2936;;;;
2020/02/17 16:12:52;;;;;;;4.3;3.1;;;;;;;13.85;55.4082;938.3448;;;;
2020/02/17 16:15:25;;;;;;;4.5;3.2;;;;;;;13.97;55.21582;938.3653;;;;
2020/02/17 16:17:57;;;;;;;4.8;3.4;;;;;;;13.61;56.29785;938.4057;;;;
2020/02/17 16:20:20;;;;;;;5.6;3.6;;;;;;;13.54;56.8291;938.4426;;;;
2020/02/17 16:23:39;;;;;;;5.1;3.2;;;;;;;13.31;57.12012;938.4746;;;;
2020/02/17 16:26:01;;;;;;;6;3.7;;;;;;;13.17;58.54004;938.5461;;;;
2020/02/17 16:28:39;;;;;;;5.2;3.3;;;;;;;13.02;58.54102;938.6323;;;;
2020/02/17 16:31:02;;;;;;;4.6;3.2;;;;;;;12.82;59.89258;938.7198;;;;